sensor_id;sensor_type;location;lat;lon;timestamp;noise_LAeq;noise_LA_min;noise_LA_max;noise_LA01;noise_LA95
73206;Laerm;61415;55.702;37.460;2023-03-21T00:00:30;58.16;54.32;61.35;;
73206;Laerm;61415;55.702;37.460;2023-03-21T00:01:01;59.79;55.84;64.64;;
73206;Laerm;61415;55.702;37.460;2023-03-21T00:01:33;60.93;55.65;65.49;;
73206;Laerm;61415;55.702;37.460;2023-03-21T00:02:04;61.54;56.63;66.17;;
73206;Laerm;61415;55.702;37.460;2023-03-21T00:02:35;60.96;57.08;66.47;;
73206;Laerm;61415;55.702;37.460;2023-03-21T00:03:06;61.49;57.10;68.35;;
73206;Laerm;61415;55.702;37.460;2023-03-21T00:03:37;62.10;56.97;68.77;;
73206;Laerm;61415;55.702;37.460;2023-03-21T00:04:08;64.74;56.17;71.98;;
73206;Laerm;61415;55.702;37.460;2023-03-21T00:04:38;61.94;58.87;65.90;;
73206;Laerm;61415;55.702;37.460;2023-03-21T00:05:09;62.55;57.72;68.60;;
73206;Laerm;61415;55.702;37.460;2023-03-21T00:05:41;68.27;64.14;72.86;;
73206;Laerm;61415;55.702;37.460;2023-03-21T00:06:12;66.76;60.63;76.68;;
73206;Laerm;61415;55.702;37.460;2023-03-21T00:06:43;60.46;56.39;66.30;;
73206;Laerm;61415;55.702;37.460;2023-03-21T00:07:14;59.73;56.03;62.78;;
73206;Laerm;61415;55.702;37.460;2023-03-21T00:07:45;62.54;59.22;65.89;;
73206;Laerm;61415;55.702;37.460;2023-03-21T00:08:16;61.88;57.89;65.65;;
73206;Laerm;61415;55.702;37.460;2023-03-21T00:08:47;62.57;57.24;65.95;;
73206;Laerm;61415;55.702;37.460;2023-03-21T00:09:18;63.93;56.36;71.97;;
73206;Laerm;61415;55.702;37.460;2023-03-21T00:09:49;60.73;54.75;67.11;;
73206;Laerm;61415;55.702;37.460;2023-03-21T00:10:20;62.00;56.42;66.50;;
73206;Laerm;61415;55.702;37.460;2023-03-21T00:10:54;63.71;56.23;68.06;;
73206;Laerm;61415;55.702;37.460;2023-03-21T00:11:25;60.13;55.31;64.89;;
73206;Laerm;61415;55.702;37.460;2023-03-21T00:11:56;60.96;57.18;64.67;;
73206;Laerm;61415;55.702;37.460;2023-03-21T00:12:31;63.17;57.24;69.16;;
73206;Laerm;61415;55.702;37.460;2023-03-21T00:13:01;59.87;56.60;63.77;;
73206;Laerm;61415;55.702;37.460;2023-03-21T00:13:33;59.28;55.83;61.62;;
73206;Laerm;61415;55.702;37.460;2023-03-21T00:14:07;60.30;56.41;66.22;;
73206;Laerm;61415;55.702;37.460;2023-03-21T00:14:38;62.16;56.56;65.91;;
73206;Laerm;61415;55.702;37.460;2023-03-21T00:15:09;64.69;60.79;68.36;;
73206;Laerm;61415;55.702;37.460;2023-03-21T00:15:41;61.60;55.75;67.78;;
73206;Laerm;61415;55.702;37.460;2023-03-21T00:16:23;59.57;55.45;65.32;;
73206;Laerm;61415;55.702;37.460;2023-03-21T00:16:56;60.67;56.92;65.37;;
73206;Laerm;61415;55.702;37.460;2023-03-21T00:17:26;60.75;57.81;65.70;;
73206;Laerm;61415;55.702;37.460;2023-03-21T00:18:02;60.77;56.84;64.24;;
73206;Laerm;61415;55.702;37.460;2023-03-21T00:18:47;58.51;55.05;61.47;;
73206;Laerm;61415;55.702;37.460;2023-03-21T00:19:21;60.51;55.22;64.66;;
73206;Laerm;61415;55.702;37.460;2023-03-21T00:19:55;59.47;55.54;64.88;;
73206;Laerm;61415;55.702;37.460;2023-03-21T00:20:26;62.57;56.96;69.26;;
73206;Laerm;61415;55.702;37.460;2023-03-21T00:20:58;61.17;55.89;66.21;;
73206;Laerm;61415;55.702;37.460;2023-03-21T00:21:29;58.99;54.79;63.04;;
73206;Laerm;61415;55.702;37.460;2023-03-21T00:22:01;63.76;58.18;73.64;;
73206;Laerm;61415;55.702;37.460;2023-03-21T00:22:35;66.06;58.02;75.38;;
73206;Laerm;61415;55.702;37.460;2023-03-21T00:23:06;64.59;56.14;70.30;;
73206;Laerm;61415;55.702;37.460;2023-03-21T00:23:37;60.30;56.87;64.07;;
73206;Laerm;61415;55.702;37.460;2023-03-21T00:24:07;60.11;55.96;63.44;;
73206;Laerm;61415;55.702;37.460;2023-03-21T00:24:38;62.64;56.76;69.23;;
73206;Laerm;61415;55.702;37.460;2023-03-21T00:25:10;65.19;57.17;71.78;;
73206;Laerm;61415;55.702;37.460;2023-03-21T00:25:40;61.80;58.64;68.49;;
73206;Laerm;61415;55.702;37.460;2023-03-21T00:26:12;61.01;57.94;63.73;;
73206;Laerm;61415;55.702;37.460;2023-03-21T00:26:43;61.62;57.99;65.83;;
73206;Laerm;61415;55.702;37.460;2023-03-21T00:27:14;66.99;59.30;73.35;;
73206;Laerm;61415;55.702;37.460;2023-03-21T00:27:45;61.09;57.37;66.27;;
73206;Laerm;61415;55.702;37.460;2023-03-21T00:28:16;58.79;54.97;62.54;;
73206;Laerm;61415;55.702;37.460;2023-03-21T00:28:47;59.42;54.25;62.83;;
73206;Laerm;61415;55.702;37.460;2023-03-21T00:29:18;59.31;54.18;62.67;;
73206;Laerm;61415;55.702;37.460;2023-03-21T00:29:48;58.83;54.98;62.36;;
73206;Laerm;61415;55.702;37.460;2023-03-21T00:30:19;58.79;55.45;62.71;;
73206;Laerm;61415;55.702;37.460;2023-03-21T00:30:50;62.80;57.31;67.68;;
73206;Laerm;61415;55.702;37.460;2023-03-21T00:31:26;62.58;57.27;67.52;;
73206;Laerm;61415;55.702;37.460;2023-03-21T00:31:57;60.80;57.35;65.14;;
73206;Laerm;61415;55.702;37.460;2023-03-21T00:32:27;63.12;57.17;68.11;;
73206;Laerm;61415;55.702;37.460;2023-03-21T00:32:58;61.58;57.40;65.19;;
73206;Laerm;61415;55.702;37.460;2023-03-21T00:33:29;61.29;57.45;65.08;;
73206;Laerm;61415;55.702;37.460;2023-03-21T00:34:00;61.50;56.00;67.22;;
73206;Laerm;61415;55.702;37.460;2023-03-21T00:34:31;60.00;56.58;64.84;;
73206;Laerm;61415;55.702;37.460;2023-03-21T00:35:03;63.06;56.53;67.55;;
73206;Laerm;61415;55.702;37.460;2023-03-21T00:35:33;60.39;55.06;65.89;;
73206;Laerm;61415;55.702;37.460;2023-03-21T00:36:05;61.52;56.36;66.13;;
73206;Laerm;61415;55.702;37.460;2023-03-21T00:36:36;59.43;55.62;62.73;;
73206;Laerm;61415;55.702;37.460;2023-03-21T00:37:07;58.23;54.56;61.78;;
73206;Laerm;61415;55.702;37.460;2023-03-21T00:37:39;59.29;55.34;62.96;;
73206;Laerm;61415;55.702;37.460;2023-03-21T00:38:10;60.37;56.75;64.18;;
73206;Laerm;61415;55.702;37.460;2023-03-21T00:38:41;59.61;55.37;66.14;;
73206;Laerm;61415;55.702;37.460;2023-03-21T00:39:11;61.89;58.27;67.99;;
73206;Laerm;61415;55.702;37.460;2023-03-21T00:39:44;64.08;59.47;68.17;;
73206;Laerm;61415;55.702;37.460;2023-03-21T00:40:18;64.69;58.01;68.96;;
73206;Laerm;61415;55.702;37.460;2023-03-21T00:40:49;60.94;57.89;64.33;;
73206;Laerm;61415;55.702;37.460;2023-03-21T00:41:20;62.66;57.82;66.22;;
73206;Laerm;61415;55.702;37.460;2023-03-21T00:41:51;65.17;61.23;71.98;;
73206;Laerm;61415;55.702;37.460;2023-03-21T00:42:22;63.96;58.09;72.43;;
73206;Laerm;61415;55.702;37.460;2023-03-21T00:42:53;63.10;58.01;68.26;;
73206;Laerm;61415;55.702;37.460;2023-03-21T00:43:23;63.36;59.15;67.19;;
73206;Laerm;61415;55.702;37.460;2023-03-21T00:43:59;60.89;57.23;64.08;;
73206;Laerm;61415;55.702;37.460;2023-03-21T00:44:30;61.59;57.10;65.16;;
73206;Laerm;61415;55.702;37.460;2023-03-21T00:45:06;63.89;58.76;69.97;;
73206;Laerm;61415;55.702;37.460;2023-03-21T00:45:39;61.58;57.72;64.86;;
73206;Laerm;61415;55.702;37.460;2023-03-21T00:46:10;60.73;56.55;64.66;;
73206;Laerm;61415;55.702;37.460;2023-03-21T00:46:41;61.83;58.10;66.56;;
73206;Laerm;61415;55.702;37.460;2023-03-21T00:47:12;62.39;56.70;67.20;;
73206;Laerm;61415;55.702;37.460;2023-03-21T00:47:43;59.68;55.84;65.45;;
73206;Laerm;61415;55.702;37.460;2023-03-21T00:48:14;61.67;56.87;65.11;;
73206;Laerm;61415;55.702;37.460;2023-03-21T00:48:45;59.38;55.11;62.93;;
73206;Laerm;61415;55.702;37.460;2023-03-21T00:49:16;62.13;56.23;67.54;;
73206;Laerm;61415;55.702;37.460;2023-03-21T00:49:47;61.88;57.56;67.42;;
73206;Laerm;61415;55.702;37.460;2023-03-21T00:50:17;62.26;57.42;67.13;;
73206;Laerm;61415;55.702;37.460;2023-03-21T00:50:49;62.49;57.07;67.68;;
73206;Laerm;61415;55.702;37.460;2023-03-21T00:51:22;62.67;58.87;65.68;;
73206;Laerm;61415;55.702;37.460;2023-03-21T00:51:56;62.82;56.67;67.46;;
73206;Laerm;61415;55.702;37.460;2023-03-21T00:52:27;62.02;56.92;66.52;;
73206;Laerm;61415;55.702;37.460;2023-03-21T00:52:58;61.94;58.32;67.09;;
73206;Laerm;61415;55.702;37.460;2023-03-21T00:53:28;61.60;58.10;64.69;;
73206;Laerm;61415;55.702;37.460;2023-03-21T00:54:00;63.02;58.66;68.58;;
73206;Laerm;61415;55.702;37.460;2023-03-21T00:54:31;63.40;59.22;67.62;;
73206;Laerm;61415;55.702;37.460;2023-03-21T00:55:03;61.08;56.84;64.09;;
73206;Laerm;61415;55.702;37.460;2023-03-21T00:55:34;62.39;57.98;67.20;;
73206;Laerm;61415;55.702;37.460;2023-03-21T00:56:05;59.61;55.62;62.60;;
73206;Laerm;61415;55.702;37.460;2023-03-21T00:56:35;61.63;57.71;65.09;;
73206;Laerm;61415;55.702;37.460;2023-03-21T00:57:06;63.32;59.76;66.78;;
73206;Laerm;61415;55.702;37.460;2023-03-21T00:57:37;61.14;57.31;65.37;;
73206;Laerm;61415;55.702;37.460;2023-03-21T00:58:08;60.71;56.77;65.27;;
73206;Laerm;61415;55.702;37.460;2023-03-21T00:58:38;62.92;58.73;65.57;;
73206;Laerm;61415;55.702;37.460;2023-03-21T00:59:09;61.22;57.11;65.07;;
73206;Laerm;61415;55.702;37.460;2023-03-21T00:59:40;59.51;56.45;65.50;;
73206;Laerm;61415;55.702;37.460;2023-03-21T01:00:12;59.46;55.95;62.46;;
73206;Laerm;61415;55.702;37.460;2023-03-21T01:00:44;59.78;55.30;64.76;;
73206;Laerm;61415;55.702;37.460;2023-03-21T01:01:16;61.17;56.35;64.82;;
73206;Laerm;61415;55.702;37.460;2023-03-21T01:01:47;59.23;55.91;62.86;;
73206;Laerm;61415;55.702;37.460;2023-03-21T01:02:18;61.69;56.26;66.78;;
73206;Laerm;61415;55.702;37.460;2023-03-21T01:02:52;65.94;57.61;78.48;;
73206;Laerm;61415;55.702;37.460;2023-03-21T01:03:34;60.54;56.94;64.75;;
73206;Laerm;61415;55.702;37.460;2023-03-21T01:04:12;65.01;60.16;70.69;;
73206;Laerm;61415;55.702;37.460;2023-03-21T01:04:46;62.77;58.87;66.58;;
73206;Laerm;61415;55.702;37.460;2023-03-21T01:05:16;62.35;58.96;65.51;;
73206;Laerm;61415;55.702;37.460;2023-03-21T01:06:08;63.13;58.04;67.14;;
73206;Laerm;61415;55.702;37.460;2023-03-21T01:06:42;64.29;60.55;67.73;;
73206;Laerm;61415;55.702;37.460;2023-03-21T01:07:13;65.28;60.27;70.49;;
73206;Laerm;61415;55.702;37.460;2023-03-21T01:07:44;65.92;61.99;73.40;;
73206;Laerm;61415;55.702;37.460;2023-03-21T01:08:15;66.82;62.48;70.38;;
73206;Laerm;61415;55.702;37.460;2023-03-21T01:08:47;65.16;61.56;69.87;;
73206;Laerm;61415;55.702;37.460;2023-03-21T01:09:19;63.06;58.88;68.55;;
73206;Laerm;61415;55.702;37.460;2023-03-21T01:09:50;60.81;56.46;65.99;;
73206;Laerm;61415;55.702;37.460;2023-03-21T01:10:21;61.02;57.73;64.36;;
73206;Laerm;61415;55.702;37.460;2023-03-21T01:10:53;61.23;57.44;64.16;;
73206;Laerm;61415;55.702;37.460;2023-03-21T01:11:25;61.88;57.83;66.59;;
73206;Laerm;61415;55.702;37.460;2023-03-21T01:11:56;62.16;57.15;66.38;;
73206;Laerm;61415;55.702;37.460;2023-03-21T01:12:27;60.66;56.73;64.98;;
73206;Laerm;61415;55.702;37.460;2023-03-21T01:12:58;62.88;57.83;66.88;;
73206;Laerm;61415;55.702;37.460;2023-03-21T01:13:29;64.76;59.72;68.50;;
73206;Laerm;61415;55.702;37.460;2023-03-21T01:13:59;64.77;57.25;71.72;;
73206;Laerm;61415;55.702;37.460;2023-03-21T01:14:30;61.92;57.47;66.63;;
73206;Laerm;61415;55.702;37.460;2023-03-21T01:15:01;64.39;60.77;68.94;;
73206;Laerm;61415;55.702;37.460;2023-03-21T01:15:32;64.14;58.64;69.54;;
73206;Laerm;61415;55.702;37.460;2023-03-21T01:16:03;60.75;57.37;63.85;;
73206;Laerm;61415;55.702;37.460;2023-03-21T01:16:34;63.93;60.41;66.89;;
73206;Laerm;61415;55.702;37.460;2023-03-21T01:17:05;62.71;57.27;68.48;;
73206;Laerm;61415;55.702;37.460;2023-03-21T01:17:36;60.97;56.65;64.82;;
73206;Laerm;61415;55.702;37.460;2023-03-21T01:18:07;61.92;57.73;65.49;;
73206;Laerm;61415;55.702;37.460;2023-03-21T01:18:39;59.80;56.82;62.21;;
73206;Laerm;61415;55.702;37.460;2023-03-21T01:19:11;60.13;56.77;63.57;;
73206;Laerm;61415;55.702;37.460;2023-03-21T01:19:42;63.15;59.76;68.30;;
73206;Laerm;61415;55.702;37.460;2023-03-21T01:20:13;65.58;58.80;69.80;;
73206;Laerm;61415;55.702;37.460;2023-03-21T01:20:45;63.69;56.00;70.77;;
73206;Laerm;61415;55.702;37.460;2023-03-21T01:21:16;61.89;58.24;67.25;;
73206;Laerm;61415;55.702;37.460;2023-03-21T01:21:46;62.09;56.88;66.57;;
73206;Laerm;61415;55.702;37.460;2023-03-21T01:22:17;65.68;59.28;71.48;;
73206;Laerm;61415;55.702;37.460;2023-03-21T01:22:48;63.59;57.67;70.12;;
73206;Laerm;61415;55.702;37.460;2023-03-21T01:23:19;60.71;55.25;65.78;;
73206;Laerm;61415;55.702;37.460;2023-03-21T01:23:50;60.53;56.72;63.98;;
73206;Laerm;61415;55.702;37.460;2023-03-21T01:24:21;66.65;60.86;70.87;;
73206;Laerm;61415;55.702;37.460;2023-03-21T01:24:52;63.00;59.06;66.55;;
73206;Laerm;61415;55.702;37.460;2023-03-21T01:25:23;59.51;56.42;64.49;;
73206;Laerm;61415;55.702;37.460;2023-03-21T01:25:54;60.09;56.30;62.90;;
73206;Laerm;61415;55.702;37.460;2023-03-21T01:26:26;61.23;56.87;64.38;;
73206;Laerm;61415;55.702;37.460;2023-03-21T01:26:57;60.55;57.19;63.75;;
73206;Laerm;61415;55.702;37.460;2023-03-21T01:27:27;60.91;57.50;64.08;;
73206;Laerm;61415;55.702;37.460;2023-03-21T01:27:58;63.01;58.24;67.62;;
73206;Laerm;61415;55.702;37.460;2023-03-21T01:28:29;64.44;57.69;69.75;;
73206;Laerm;61415;55.702;37.460;2023-03-21T01:29:00;63.39;59.62;66.42;;
73206;Laerm;61415;55.702;37.460;2023-03-21T01:29:31;62.85;58.77;66.47;;
73206;Laerm;61415;55.702;37.460;2023-03-21T01:30:02;61.11;57.67;63.94;;
73206;Laerm;61415;55.702;37.460;2023-03-21T01:30:33;62.47;57.91;66.51;;
73206;Laerm;61415;55.702;37.460;2023-03-21T01:31:04;62.14;57.83;65.48;;
73206;Laerm;61415;55.702;37.460;2023-03-21T01:31:35;61.77;55.21;65.40;;
73206;Laerm;61415;55.702;37.460;2023-03-21T01:32:06;58.34;55.27;62.39;;
73206;Laerm;61415;55.702;37.460;2023-03-21T01:32:37;62.65;55.27;67.86;;
73206;Laerm;61415;55.702;37.460;2023-03-21T01:33:08;58.06;55.39;60.95;;
73206;Laerm;61415;55.702;37.460;2023-03-21T01:33:39;62.05;58.85;65.34;;
73206;Laerm;61415;55.702;37.460;2023-03-21T01:34:09;59.29;54.80;63.72;;
73206;Laerm;61415;55.702;37.460;2023-03-21T01:34:40;61.31;54.18;65.58;;
73206;Laerm;61415;55.702;37.460;2023-03-21T01:35:11;63.64;57.30;67.50;;
73206;Laerm;61415;55.702;37.460;2023-03-21T01:35:42;61.25;57.09;64.30;;
73206;Laerm;61415;55.702;37.460;2023-03-21T01:36:20;64.87;59.38;68.37;;
73206;Laerm;61415;55.702;37.460;2023-03-21T01:36:51;63.00;59.56;66.14;;
73206;Laerm;61415;55.702;37.460;2023-03-21T01:37:22;61.94;55.77;67.36;;
73206;Laerm;61415;55.702;37.460;2023-03-21T01:37:55;59.02;54.98;62.93;;
73206;Laerm;61415;55.702;37.460;2023-03-21T01:38:26;64.04;59.74;68.24;;
73206;Laerm;61415;55.702;37.460;2023-03-21T01:38:57;63.40;60.21;66.92;;
73206;Laerm;61415;55.702;37.460;2023-03-21T01:39:28;61.71;57.28;66.14;;
73206;Laerm;61415;55.702;37.460;2023-03-21T01:39:59;60.54;55.77;67.04;;
73206;Laerm;61415;55.702;37.460;2023-03-21T01:40:30;60.79;54.96;64.80;;
73206;Laerm;61415;55.702;37.460;2023-03-21T01:41:01;57.91;53.96;61.97;;
73206;Laerm;61415;55.702;37.460;2023-03-21T01:41:33;62.24;58.03;76.98;;
73206;Laerm;61415;55.702;37.460;2023-03-21T01:42:04;62.86;56.33;69.72;;
73206;Laerm;61415;55.702;37.460;2023-03-21T01:42:35;60.68;56.56;63.97;;
73206;Laerm;61415;55.702;37.460;2023-03-21T01:43:49;65.98;58.04;72.37;;
73206;Laerm;61415;55.702;37.460;2023-03-21T01:44:20;60.18;55.36;65.02;;
73206;Laerm;61415;55.702;37.460;2023-03-21T01:44:53;58.88;54.85;61.66;;
73206;Laerm;61415;55.702;37.460;2023-03-21T01:46:21;62.37;58.08;65.89;;
73206;Laerm;61415;55.702;37.460;2023-03-21T01:46:57;61.57;58.25;66.59;;
73206;Laerm;61415;55.702;37.460;2023-03-21T01:47:29;67.32;60.30;74.86;;
73206;Laerm;61415;55.702;37.460;2023-03-21T01:48:00;63.70;59.49;66.62;;
73206;Laerm;61415;55.702;37.460;2023-03-21T01:48:31;62.76;58.85;66.90;;
73206;Laerm;61415;55.702;37.460;2023-03-21T01:49:19;64.69;59.66;69.85;;
73206;Laerm;61415;55.702;37.460;2023-03-21T01:49:55;65.18;60.03;68.45;;
73206;Laerm;61415;55.702;37.460;2023-03-21T01:50:27;63.98;58.54;67.40;;
73206;Laerm;61415;55.702;37.460;2023-03-21T01:50:58;64.74;60.02;69.66;;
73206;Laerm;61415;55.702;37.460;2023-03-21T01:51:32;60.31;56.77;64.47;;
73206;Laerm;61415;55.702;37.460;2023-03-21T01:52:08;61.99;58.04;68.23;;
73206;Laerm;61415;55.702;37.460;2023-03-21T01:52:39;61.13;56.97;64.31;;
73206;Laerm;61415;55.702;37.460;2023-03-21T01:53:12;61.11;57.77;64.40;;
73206;Laerm;61415;55.702;37.460;2023-03-21T01:53:43;66.19;59.65;74.83;;
73206;Laerm;61415;55.702;37.460;2023-03-21T01:54:16;65.72;59.79;73.87;;
73206;Laerm;61415;55.702;37.460;2023-03-21T01:54:50;62.59;58.92;65.92;;
73206;Laerm;61415;55.702;37.460;2023-03-21T01:55:21;66.91;61.08;71.11;;
73206;Laerm;61415;55.702;37.460;2023-03-21T01:55:52;62.28;58.95;65.72;;
73206;Laerm;61415;55.702;37.460;2023-03-21T01:56:23;61.93;58.77;66.61;;
73206;Laerm;61415;55.702;37.460;2023-03-21T01:56:56;62.83;58.32;66.42;;
73206;Laerm;61415;55.702;37.460;2023-03-21T01:57:29;62.63;59.55;66.22;;
73206;Laerm;61415;55.702;37.460;2023-03-21T01:58:02;62.62;59.03;66.76;;
73206;Laerm;61415;55.702;37.460;2023-03-21T01:58:34;62.64;58.86;66.97;;
73206;Laerm;61415;55.702;37.460;2023-03-21T01:59:10;62.11;57.11;66.01;;
73206;Laerm;61415;55.702;37.460;2023-03-21T01:59:44;62.44;57.77;67.60;;
73206;Laerm;61415;55.702;37.460;2023-03-21T02:00:15;62.51;56.53;68.96;;
73206;Laerm;61415;55.702;37.460;2023-03-21T02:00:46;61.52;58.26;64.81;;
73206;Laerm;61415;55.702;37.460;2023-03-21T02:01:20;64.19;59.77;68.75;;
73206;Laerm;61415;55.702;37.460;2023-03-21T02:01:52;63.58;60.05;67.65;;
73206;Laerm;61415;55.702;37.460;2023-03-21T02:02:24;63.53;56.82;67.84;;
73206;Laerm;61415;55.702;37.460;2023-03-21T02:02:56;60.86;56.60;64.94;;
73206;Laerm;61415;55.702;37.460;2023-03-21T02:03:31;62.54;59.10;67.09;;
73206;Laerm;61415;55.702;37.460;2023-03-21T02:04:07;62.89;58.72;66.85;;
73206;Laerm;61415;55.702;37.460;2023-03-21T02:04:38;62.28;57.62;66.90;;
73206;Laerm;61415;55.702;37.460;2023-03-21T02:05:10;64.00;60.21;67.27;;
73206;Laerm;61415;55.702;37.460;2023-03-21T02:06:12;61.83;59.18;65.69;;
73206;Laerm;61415;55.702;37.460;2023-03-21T02:06:47;64.16;60.31;67.44;;
73206;Laerm;61415;55.702;37.460;2023-03-21T02:07:20;61.70;57.39;65.02;;
73206;Laerm;61415;55.702;37.460;2023-03-21T02:07:55;63.87;57.05;70.91;;
73206;Laerm;61415;55.702;37.460;2023-03-21T02:08:27;66.60;62.28;71.06;;
73206;Laerm;61415;55.702;37.460;2023-03-21T02:09:02;64.80;59.52;68.02;;
73206;Laerm;61415;55.702;37.460;2023-03-21T02:09:34;58.97;55.29;62.81;;
73206;Laerm;61415;55.702;37.460;2023-03-21T02:10:07;63.46;58.64;67.68;;
73206;Laerm;61415;55.702;37.460;2023-03-21T02:10:39;64.08;58.63;68.73;;
73206;Laerm;61415;55.702;37.460;2023-03-21T02:11:11;62.82;59.03;66.02;;
73206;Laerm;61415;55.702;37.460;2023-03-21T02:11:42;64.18;59.27;68.31;;
73206;Laerm;61415;55.702;37.460;2023-03-21T02:12:16;66.49;62.56;71.50;;
73206;Laerm;61415;55.702;37.460;2023-03-21T02:12:48;63.62;58.56;67.54;;
73206;Laerm;61415;55.702;37.460;2023-03-21T02:13:19;62.89;58.73;66.09;;
73206;Laerm;61415;55.702;37.460;2023-03-21T02:13:50;64.59;59.02;67.81;;
73206;Laerm;61415;55.702;37.460;2023-03-21T02:14:20;61.79;57.66;65.74;;
73206;Laerm;61415;55.702;37.460;2023-03-21T02:14:51;65.37;58.51;74.44;;
73206;Laerm;61415;55.702;37.460;2023-03-21T02:15:22;62.66;58.26;66.02;;
73206;Laerm;61415;55.702;37.460;2023-03-21T02:17:23;63.13;56.78;68.77;;
73206;Laerm;61415;55.702;37.460;2023-03-21T02:18:08;65.44;59.17;71.24;;
73206;Laerm;61415;55.702;37.460;2023-03-21T02:19:09;61.71;57.24;65.86;;
73206;Laerm;61415;55.702;37.460;2023-03-21T02:19:41;65.02;56.05;70.07;;
73206;Laerm;61415;55.702;37.460;2023-03-21T02:21:29;63.95;59.44;67.74;;
73206;Laerm;61415;55.702;37.460;2023-03-21T02:25:04;64.40;58.59;70.00;;
73206;Laerm;61415;55.702;37.460;2023-03-21T02:26:37;64.73;58.94;69.06;;
73206;Laerm;61415;55.702;37.460;2023-03-21T02:27:15;63.43;59.60;67.50;;
73206;Laerm;61415;55.702;37.460;2023-03-21T02:27:55;63.88;59.26;68.39;;
73206;Laerm;61415;55.702;37.460;2023-03-21T02:29:07;65.61;61.29;68.40;;
73206;Laerm;61415;55.702;37.460;2023-03-21T02:32:33;61.27;57.29;65.65;;
73206;Laerm;61415;55.702;37.460;2023-03-21T02:33:16;63.26;58.54;68.57;;
73206;Laerm;61415;55.702;37.460;2023-03-21T02:34:41;65.41;60.09;68.36;;
73206;Laerm;61415;55.702;37.460;2023-03-21T02:37:01;65.83;61.48;69.89;;
73206;Laerm;61415;55.702;37.460;2023-03-21T02:38:02;65.11;61.66;68.19;;
73206;Laerm;61415;55.702;37.460;2023-03-21T02:40:19;63.84;59.82;67.36;;
73206;Laerm;61415;55.702;37.460;2023-03-21T02:42:43;65.53;61.30;68.90;;
73206;Laerm;61415;55.702;37.460;2023-03-21T02:44:45;65.38;61.54;71.08;;
73206;Laerm;61415;55.702;37.460;2023-03-21T02:45:21;64.39;60.28;67.51;;
73206;Laerm;61415;55.702;37.460;2023-03-21T02:45:56;64.18;59.51;67.39;;
73206;Laerm;61415;55.702;37.460;2023-03-21T02:46:33;64.55;61.39;68.67;;
73206;Laerm;61415;55.702;37.460;2023-03-21T02:47:16;64.54;57.96;70.23;;
73206;Laerm;61415;55.702;37.460;2023-03-21T02:47:50;64.40;60.77;67.82;;
73206;Laerm;61415;55.702;37.460;2023-03-21T02:48:28;64.59;61.44;67.16;;
73206;Laerm;61415;55.702;37.460;2023-03-21T02:49:07;65.74;61.24;71.10;;
73206;Laerm;61415;55.702;37.460;2023-03-21T02:49:45;65.53;60.10;69.78;;
73206;Laerm;61415;55.702;37.460;2023-03-21T02:50:27;64.84;60.94;69.64;;
73206;Laerm;61415;55.702;37.460;2023-03-21T02:51:01;63.49;59.92;67.57;;
73206;Laerm;61415;55.702;37.460;2023-03-21T02:51:35;65.95;62.46;68.38;;
73206;Laerm;61415;55.702;37.460;2023-03-21T02:52:08;64.15;60.67;68.35;;
73206;Laerm;61415;55.702;37.460;2023-03-21T02:52:41;64.32;60.24;67.50;;
73206;Laerm;61415;55.702;37.460;2023-03-21T02:53:16;62.69;58.24;67.57;;
73206;Laerm;61415;55.702;37.460;2023-03-21T02:53:54;66.00;61.68;68.60;;
73206;Laerm;61415;55.702;37.460;2023-03-21T02:54:26;65.40;61.35;68.57;;
73206;Laerm;61415;55.702;37.460;2023-03-21T02:54:58;66.11;63.20;69.57;;
73206;Laerm;61415;55.702;37.460;2023-03-21T02:55:30;62.65;58.08;66.87;;
73206;Laerm;61415;55.702;37.460;2023-03-21T02:56:02;65.86;58.79;70.32;;
73206;Laerm;61415;55.702;37.460;2023-03-21T02:56:33;66.40;60.52;69.95;;
73206;Laerm;61415;55.702;37.460;2023-03-21T02:57:06;65.47;61.18;69.97;;
73206;Laerm;61415;55.702;37.460;2023-03-21T02:57:37;67.08;60.74;69.82;;
73206;Laerm;61415;55.702;37.460;2023-03-21T02:58:11;66.03;60.36;70.40;;
73206;Laerm;61415;55.702;37.460;2023-03-21T02:58:43;65.80;61.22;68.81;;
73206;Laerm;61415;55.702;37.460;2023-03-21T02:59:15;64.26;59.69;68.99;;
73206;Laerm;61415;55.702;37.460;2023-03-21T02:59:49;64.34;59.17;68.36;;
73206;Laerm;61415;55.702;37.460;2023-03-21T03:00:23;64.89;61.71;67.85;;
73206;Laerm;61415;55.702;37.460;2023-03-21T03:00:55;66.50;62.77;71.62;;
73206;Laerm;61415;55.702;37.460;2023-03-21T03:01:26;66.25;61.09;71.84;;
73206;Laerm;61415;55.702;37.460;2023-03-21T03:01:58;65.96;61.04;69.18;;
73206;Laerm;61415;55.702;37.460;2023-03-21T03:02:29;65.52;60.72;73.00;;
73206;Laerm;61415;55.702;37.460;2023-03-21T03:03:00;64.26;60.59;68.27;;
73206;Laerm;61415;55.702;37.460;2023-03-21T03:03:33;67.67;63.35;72.36;;
73206;Laerm;61415;55.702;37.460;2023-03-21T03:04:18;64.61;60.92;67.17;;
73206;Laerm;61415;55.702;37.460;2023-03-21T03:04:49;64.17;59.93;68.21;;
73206;Laerm;61415;55.702;37.460;2023-03-21T03:05:21;62.97;58.32;68.68;;
73206;Laerm;61415;55.702;37.460;2023-03-21T03:05:52;68.96;63.59;74.52;;
73206;Laerm;61415;55.702;37.460;2023-03-21T03:06:26;65.86;61.39;70.61;;
73206;Laerm;61415;55.702;37.460;2023-03-21T03:07:35;64.84;60.14;69.51;;
73206;Laerm;61415;55.702;37.460;2023-03-21T03:08:26;64.75;61.00;69.00;;
73206;Laerm;61415;55.702;37.460;2023-03-21T03:09:45;64.44;58.67;69.78;;
73206;Laerm;61415;55.702;37.460;2023-03-21T03:10:42;66.49;60.97;71.15;;
73206;Laerm;61415;55.702;37.460;2023-03-21T03:11:18;67.18;62.47;71.41;;
73206;Laerm;61415;55.702;37.460;2023-03-21T03:11:54;64.04;60.37;67.26;;
73206;Laerm;61415;55.702;37.460;2023-03-21T03:12:38;64.75;59.86;69.40;;
73206;Laerm;61415;55.702;37.460;2023-03-21T03:13:35;68.55;64.53;72.38;;
73206;Laerm;61415;55.702;37.460;2023-03-21T03:15:10;67.52;63.85;70.44;;
73206;Laerm;61415;55.702;37.460;2023-03-21T03:17:51;68.14;61.59;72.47;;
73206;Laerm;61415;55.702;37.460;2023-03-21T03:18:59;66.50;62.88;69.78;;
73206;Laerm;61415;55.702;37.460;2023-03-21T03:19:31;66.45;62.98;70.93;;
73206;Laerm;61415;55.702;37.460;2023-03-21T03:21:11;66.88;63.85;70.29;;
73206;Laerm;61415;55.702;37.460;2023-03-21T03:21:49;67.09;63.06;70.16;;
73206;Laerm;61415;55.702;37.460;2023-03-21T03:22:31;68.03;64.91;70.34;;
73206;Laerm;61415;55.702;37.460;2023-03-21T03:23:44;65.64;61.73;69.00;;
73206;Laerm;61415;55.702;37.460;2023-03-21T03:24:18;65.48;60.62;70.92;;
73206;Laerm;61415;55.702;37.460;2023-03-21T03:24:55;69.49;66.11;73.29;;
73206;Laerm;61415;55.702;37.460;2023-03-21T03:25:30;65.94;62.31;68.99;;
73206;Laerm;61415;55.702;37.460;2023-03-21T03:26:09;68.48;64.00;74.03;;
73206;Laerm;61415;55.702;37.460;2023-03-21T03:27:16;69.29;66.21;71.63;;
73206;Laerm;61415;55.702;37.460;2023-03-21T03:27:49;66.43;62.46;70.10;;
73206;Laerm;61415;55.702;37.460;2023-03-21T03:28:24;66.30;62.54;69.23;;
73206;Laerm;61415;55.702;37.460;2023-03-21T03:28:57;69.17;63.56;74.35;;
73206;Laerm;61415;55.702;37.460;2023-03-21T03:29:29;69.70;64.96;73.03;;